Terminal Aerodrome Forecast
Issued by NWS

Current Version | Previous Version | Text Only | Print | Product List | Glossary On
Versions: 1 2 3 4 5 6 7 8 9 10 11 12
000
FTUS45 KVEF 231120
TAFHND
TAF
KHND 231120Z 2312/2412 05008KT P6SM FEW120
     FM231300 34010KT P6SM FEW120
     FM231800 34012G22KT P6SM FEW120
     FM240100 36008KT P6SM FEW120
     FM240500 VRB05KT P6SM SKC=

USA.gov is the U.S. government's official web portal to all federal, state and local government web resources and services.